sensor_id;sensor_type;location;lat;lon;timestamp;P1;durP1;ratioP1;P2;durP2;ratioP2
46290;SDS011;32023;44.444;26.006;2023-06-22T00:00:24;10.73;;;9.27;;
46290;SDS011;32023;44.444;26.006;2023-06-22T00:02:50;12.05;;;9.63;;
46290;SDS011;32023;44.444;26.006;2023-06-22T00:05:17;15.38;;;9.63;;
46290;SDS011;32023;44.444;26.006;2023-06-22T00:07:43;12.15;;;10.13;;
46290;SDS011;32023;44.444;26.006;2023-06-22T00:10:13;18.35;;;9.73;;
46290;SDS011;32023;44.444;26.006;2023-06-22T00:13:02;12.82;;;9.80;;
46290;SDS011;32023;44.444;26.006;2023-06-22T00:15:29;12.52;;;9.88;;
46290;SDS011;32023;44.444;26.006;2023-06-22T00:17:55;11.45;;;9.63;;
46290;SDS011;32023;44.444;26.006;2023-06-22T00:20:22;13.20;;;9.55;;
46290;SDS011;32023;44.444;26.006;2023-06-22T00:22:53;13.50;;;10.40;;
46290;SDS011;32023;44.444;26.006;2023-06-22T00:25:20;12.65;;;10.18;;
46290;SDS011;32023;44.444;26.006;2023-06-22T00:27:47;14.65;;;9.82;;
46290;SDS011;32023;44.444;26.006;2023-06-22T00:30:15;12.55;;;9.43;;
46290;SDS011;32023;44.444;26.006;2023-06-22T00:32:42;12.18;;;10.07;;
46290;SDS011;32023;44.444;26.006;2023-06-22T00:35:10;15.70;;;10.45;;
46290;SDS011;32023;44.444;26.006;2023-06-22T00:37:37;12.55;;;10.15;;
46290;SDS011;32023;44.444;26.006;2023-06-22T00:40:10;11.70;;;10.18;;
46290;SDS011;32023;44.444;26.006;2023-06-22T00:45:13;15.03;;;11.17;;
46290;SDS011;32023;44.444;26.006;2023-06-22T00:47:40;13.52;;;11.15;;
46290;SDS011;32023;44.444;26.006;2023-06-22T00:50:08;12.07;;;10.77;;
46290;SDS011;32023;44.444;26.006;2023-06-22T00:52:43;13.65;;;11.18;;
46290;SDS011;32023;44.444;26.006;2023-06-22T00:55:11;12.93;;;11.15;;
46290;SDS011;32023;44.444;26.006;2023-06-22T00:57:39;25.23;;;11.35;;
46290;SDS011;32023;44.444;26.006;2023-06-22T01:00:06;13.32;;;11.60;;
46290;SDS011;32023;44.444;26.006;2023-06-22T01:02:35;23.02;;;11.07;;
46290;SDS011;32023;44.444;26.006;2023-06-22T01:05:01;13.02;;;10.98;;
46290;SDS011;32023;44.444;26.006;2023-06-22T01:07:35;13.63;;;11.32;;
46290;SDS011;32023;44.444;26.006;2023-06-22T01:10:18;15.27;;;11.68;;
46290;SDS011;32023;44.444;26.006;2023-06-22T01:12:53;14.23;;;12.00;;
46290;SDS011;32023;44.444;26.006;2023-06-22T01:18:31;19.85;;;12.80;;
46290;SDS011;32023;44.444;26.006;2023-06-22T01:21:01;17.33;;;11.98;;
46290;SDS011;32023;44.444;26.006;2023-06-22T01:23:39;14.38;;;12.88;;
46290;SDS011;32023;44.444;26.006;2023-06-22T01:26:18;19.23;;;12.95;;
46290;SDS011;32023;44.444;26.006;2023-06-22T01:29:00;17.45;;;13.88;;
46290;SDS011;32023;44.444;26.006;2023-06-22T01:31:29;20.70;;;13.45;;
46290;SDS011;32023;44.444;26.006;2023-06-22T01:34:00;18.50;;;13.50;;
46290;SDS011;32023;44.444;26.006;2023-06-22T01:36:28;15.10;;;13.13;;
46290;SDS011;32023;44.444;26.006;2023-06-22T01:38:59;17.02;;;13.30;;
46290;SDS011;32023;44.444;26.006;2023-06-22T01:41:32;17.67;;;14.25;;
46290;SDS011;32023;44.444;26.006;2023-06-22T01:44:01;19.80;;;13.95;;
46290;SDS011;32023;44.444;26.006;2023-06-22T01:46:42;14.32;;;12.80;;
46290;SDS011;32023;44.444;26.006;2023-06-22T01:49:09;20.73;;;14.60;;
46290;SDS011;32023;44.444;26.006;2023-06-22T01:51:35;16.90;;;13.75;;
46290;SDS011;32023;44.444;26.006;2023-06-22T01:54:02;21.42;;;15.52;;
46290;SDS011;32023;44.444;26.006;2023-06-22T01:56:28;16.75;;;14.38;;
46290;SDS011;32023;44.444;26.006;2023-06-22T01:59:00;18.55;;;14.40;;
46290;SDS011;32023;44.444;26.006;2023-06-22T02:01:36;18.17;;;14.30;;
46290;SDS011;32023;44.444;26.006;2023-06-22T02:06:49;17.73;;;14.52;;
46290;SDS011;32023;44.444;26.006;2023-06-22T02:09:19;20.17;;;15.18;;
46290;SDS011;32023;44.444;26.006;2023-06-22T02:11:47;16.20;;;14.05;;
46290;SDS011;32023;44.444;26.006;2023-06-22T02:14:18;20.63;;;15.68;;
46290;SDS011;32023;44.444;26.006;2023-06-22T02:16:46;18.38;;;14.80;;
46290;SDS011;32023;44.444;26.006;2023-06-22T02:19:12;17.45;;;15.38;;
46290;SDS011;32023;44.444;26.006;2023-06-22T02:24:12;20.23;;;15.45;;
46290;SDS011;32023;44.444;26.006;2023-06-22T02:26:39;21.17;;;16.60;;
46290;SDS011;32023;44.444;26.006;2023-06-22T02:29:07;22.60;;;15.80;;
46290;SDS011;32023;44.444;26.006;2023-06-22T02:31:34;21.42;;;16.95;;
46290;SDS011;32023;44.444;26.006;2023-06-22T02:34:00;23.73;;;15.95;;
46290;SDS011;32023;44.444;26.006;2023-06-22T02:36:26;20.33;;;15.20;;
46290;SDS011;32023;44.444;26.006;2023-06-22T02:38:55;24.08;;;15.60;;
46290;SDS011;32023;44.444;26.006;2023-06-22T02:41:24;20.73;;;15.60;;
46290;SDS011;32023;44.444;26.006;2023-06-22T02:43:52;24.25;;;16.60;;
46290;SDS011;32023;44.444;26.006;2023-06-22T02:46:19;21.30;;;16.50;;
46290;SDS011;32023;44.444;26.006;2023-06-22T02:48:46;26.75;;;15.88;;
46290;SDS011;32023;44.444;26.006;2023-06-22T02:51:12;21.08;;;15.88;;
46290;SDS011;32023;44.444;26.006;2023-06-22T02:53:40;18.42;;;15.27;;
46290;SDS011;32023;44.444;26.006;2023-06-22T02:56:09;19.10;;;15.77;;
46290;SDS011;32023;44.444;26.006;2023-06-22T02:58:38;20.30;;;15.70;;
46290;SDS011;32023;44.444;26.006;2023-06-22T03:01:05;20.13;;;15.60;;
46290;SDS011;32023;44.444;26.006;2023-06-22T03:03:34;22.75;;;16.13;;
46290;SDS011;32023;44.444;26.006;2023-06-22T03:06:00;20.75;;;16.08;;
46290;SDS011;32023;44.444;26.006;2023-06-22T03:08:26;17.05;;;15.05;;
46290;SDS011;32023;44.444;26.006;2023-06-22T03:10:55;22.25;;;16.48;;
46290;SDS011;32023;44.444;26.006;2023-06-22T03:13:23;19.05;;;14.77;;
46290;SDS011;32023;44.444;26.006;2023-06-22T03:15:50;19.05;;;15.00;;
46290;SDS011;32023;44.444;26.006;2023-06-22T03:18:22;19.00;;;14.98;;
46290;SDS011;32023;44.444;26.006;2023-06-22T03:20:49;17.92;;;14.68;;
46290;SDS011;32023;44.444;26.006;2023-06-22T03:23:15;19.08;;;15.02;;
46290;SDS011;32023;44.444;26.006;2023-06-22T03:25:45;24.30;;;15.38;;
46290;SDS011;32023;44.444;26.006;2023-06-22T03:28:11;20.45;;;15.43;;
46290;SDS011;32023;44.444;26.006;2023-06-22T03:30:38;20.25;;;14.43;;
46290;SDS011;32023;44.444;26.006;2023-06-22T03:33:04;19.30;;;14.98;;
46290;SDS011;32023;44.444;26.006;2023-06-22T03:35:30;23.25;;;15.00;;
46290;SDS011;32023;44.444;26.006;2023-06-22T03:37:57;17.73;;;13.63;;
46290;SDS011;32023;44.444;26.006;2023-06-22T03:40:25;18.77;;;14.50;;
46290;SDS011;32023;44.444;26.006;2023-06-22T03:42:52;18.88;;;13.85;;
46290;SDS011;32023;44.444;26.006;2023-06-22T03:45:18;21.85;;;14.40;;
46290;SDS011;32023;44.444;26.006;2023-06-22T03:47:44;16.58;;;14.23;;
46290;SDS011;32023;44.444;26.006;2023-06-22T03:50:11;17.13;;;13.18;;
46290;SDS011;32023;44.444;26.006;2023-06-22T03:52:37;17.63;;;14.80;;
46290;SDS011;32023;44.444;26.006;2023-06-22T03:55:11;18.90;;;14.35;;
46290;SDS011;32023;44.444;26.006;2023-06-22T03:57:40;18.73;;;14.38;;
46290;SDS011;32023;44.444;26.006;2023-06-22T04:00:09;22.60;;;14.43;;
46290;SDS011;32023;44.444;26.006;2023-06-22T04:02:42;22.75;;;13.65;;
46290;SDS011;32023;44.444;26.006;2023-06-22T04:05:08;18.50;;;14.43;;
46290;SDS011;32023;44.444;26.006;2023-06-22T04:07:35;16.40;;;13.55;;
46290;SDS011;32023;44.444;26.006;2023-06-22T04:10:07;19.67;;;12.60;;
46290;SDS011;32023;44.444;26.006;2023-06-22T04:12:36;17.98;;;12.93;;
46290;SDS011;32023;44.444;26.006;2023-06-22T04:15:03;16.05;;;13.18;;
46290;SDS011;32023;44.444;26.006;2023-06-22T04:17:33;17.15;;;12.88;;
46290;SDS011;32023;44.444;26.006;2023-06-22T04:20:07;22.42;;;13.70;;
46290;SDS011;32023;44.444;26.006;2023-06-22T04:22:34;17.55;;;14.73;;
46290;SDS011;32023;44.444;26.006;2023-06-22T04:25:10;18.65;;;12.88;;
46290;SDS011;32023;44.444;26.006;2023-06-22T04:27:36;16.33;;;12.88;;
46290;SDS011;32023;44.444;26.006;2023-06-22T04:30:15;18.27;;;12.27;;
46290;SDS011;32023;44.444;26.006;2023-06-22T04:32:42;20.42;;;13.32;;
46290;SDS011;32023;44.444;26.006;2023-06-22T04:35:09;19.17;;;12.70;;
46290;SDS011;32023;44.444;26.006;2023-06-22T04:37:36;16.83;;;12.82;;
46290;SDS011;32023;44.444;26.006;2023-06-22T04:40:04;24.80;;;14.15;;
46290;SDS011;32023;44.444;26.006;2023-06-22T04:42:39;16.95;;;13.02;;
46290;SDS011;32023;44.444;26.006;2023-06-22T04:45:07;25.08;;;13.20;;
46290;SDS011;32023;44.444;26.006;2023-06-22T04:47:35;14.40;;;12.90;;
46290;SDS011;32023;44.444;26.006;2023-06-22T04:52:33;16.73;;;12.60;;
46290;SDS011;32023;44.444;26.006;2023-06-22T04:55:02;20.55;;;12.80;;
46290;SDS011;32023;44.444;26.006;2023-06-22T04:57:29;16.52;;;12.00;;
46290;SDS011;32023;44.444;26.006;2023-06-22T04:59:59;15.73;;;10.55;;
46290;SDS011;32023;44.444;26.006;2023-06-22T05:02:41;13.05;;;10.10;;
46290;SDS011;32023;44.444;26.006;2023-06-22T05:05:09;12.07;;;9.55;;
46290;SDS011;32023;44.444;26.006;2023-06-22T05:07:38;21.88;;;9.23;;
46290;SDS011;32023;44.444;26.006;2023-06-22T05:10:08;12.40;;;7.53;;
46290;SDS011;32023;44.444;26.006;2023-06-22T05:12:39;12.27;;;6.93;;
46290;SDS011;32023;44.444;26.006;2023-06-22T05:15:09;10.50;;;7.03;;
46290;SDS011;32023;44.444;26.006;2023-06-22T05:17:36;8.07;;;6.28;;
46290;SDS011;32023;44.444;26.006;2023-06-22T05:20:08;12.73;;;6.32;;
46290;SDS011;32023;44.444;26.006;2023-06-22T05:22:36;7.43;;;5.20;;
46290;SDS011;32023;44.444;26.006;2023-06-22T05:25:04;10.05;;;5.97;;
46290;SDS011;32023;44.444;26.006;2023-06-22T05:27:33;6.47;;;5.57;;
46290;SDS011;32023;44.444;26.006;2023-06-22T05:30:04;7.32;;;5.32;;
46290;SDS011;32023;44.444;26.006;2023-06-22T05:32:32;6.07;;;4.78;;
46290;SDS011;32023;44.444;26.006;2023-06-22T05:34:59;6.43;;;5.40;;
46290;SDS011;32023;44.444;26.006;2023-06-22T05:37:26;7.30;;;5.20;;
46290;SDS011;32023;44.444;26.006;2023-06-22T05:39:53;6.78;;;5.05;;
46290;SDS011;32023;44.444;26.006;2023-06-22T05:42:22;7.60;;;5.07;;
46290;SDS011;32023;44.444;26.006;2023-06-22T05:44:50;7.47;;;4.90;;
46290;SDS011;32023;44.444;26.006;2023-06-22T05:47:18;5.78;;;4.75;;
46290;SDS011;32023;44.444;26.006;2023-06-22T05:49:44;6.95;;;4.78;;
46290;SDS011;32023;44.444;26.006;2023-06-22T05:52:10;8.68;;;4.97;;
46290;SDS011;32023;44.444;26.006;2023-06-22T05:54:40;6.32;;;4.75;;
46290;SDS011;32023;44.444;26.006;2023-06-22T05:57:08;8.70;;;4.68;;
46290;SDS011;32023;44.444;26.006;2023-06-22T05:59:38;8.05;;;5.00;;
46290;SDS011;32023;44.444;26.006;2023-06-22T06:02:05;10.05;;;4.90;;
46290;SDS011;32023;44.444;26.006;2023-06-22T06:04:40;5.65;;;4.80;;
46290;SDS011;32023;44.444;26.006;2023-06-22T06:07:06;7.40;;;4.60;;
46290;SDS011;32023;44.444;26.006;2023-06-22T06:09:33;6.28;;;4.72;;
46290;SDS011;32023;44.444;26.006;2023-06-22T06:11:59;7.32;;;4.72;;
46290;SDS011;32023;44.444;26.006;2023-06-22T06:14:28;8.32;;;5.00;;
46290;SDS011;32023;44.444;26.006;2023-06-22T06:16:54;6.97;;;5.05;;
46290;SDS011;32023;44.444;26.006;2023-06-22T06:19:20;4.88;;;4.43;;
46290;SDS011;32023;44.444;26.006;2023-06-22T06:21:47;6.25;;;4.60;;
46290;SDS011;32023;44.444;26.006;2023-06-22T06:24:13;7.75;;;4.65;;
46290;SDS011;32023;44.444;26.006;2023-06-22T06:26:39;7.80;;;4.10;;
46290;SDS011;32023;44.444;26.006;2023-06-22T06:29:08;6.30;;;4.40;;
46290;SDS011;32023;44.444;26.006;2023-06-22T06:31:55;6.80;;;5.10;;
46290;SDS011;32023;44.444;26.006;2023-06-22T06:34:50;5.63;;;4.15;;
46290;SDS011;32023;44.444;26.006;2023-06-22T06:37:22;4.97;;;4.20;;
46290;SDS011;32023;44.444;26.006;2023-06-22T06:39:48;12.18;;;4.15;;
46290;SDS011;32023;44.444;26.006;2023-06-22T06:42:17;8.85;;;4.00;;
46290;SDS011;32023;44.444;26.006;2023-06-22T06:44:44;8.25;;;4.15;;
46290;SDS011;32023;44.444;26.006;2023-06-22T06:47:11;5.25;;;3.78;;
46290;SDS011;32023;44.444;26.006;2023-06-22T06:49:37;5.80;;;4.10;;
46290;SDS011;32023;44.444;26.006;2023-06-22T06:52:04;5.57;;;4.30;;
46290;SDS011;32023;44.444;26.006;2023-06-22T06:54:31;7.72;;;4.43;;
46290;SDS011;32023;44.444;26.006;2023-06-22T06:57:01;7.00;;;4.03;;
46290;SDS011;32023;44.444;26.006;2023-06-22T06:59:28;5.40;;;3.92;;
46290;SDS011;32023;44.444;26.006;2023-06-22T07:01:55;8.18;;;4.10;;
46290;SDS011;32023;44.444;26.006;2023-06-22T07:04:24;5.30;;;4.10;;
46290;SDS011;32023;44.444;26.006;2023-06-22T07:06:55;6.18;;;4.03;;
46290;SDS011;32023;44.444;26.006;2023-06-22T07:09:21;8.40;;;4.20;;
46290;SDS011;32023;44.444;26.006;2023-06-22T07:11:50;9.98;;;4.65;;
46290;SDS011;32023;44.444;26.006;2023-06-22T07:14:17;7.28;;;4.25;;
46290;SDS011;32023;44.444;26.006;2023-06-22T07:16:43;7.38;;;4.20;;
46290;SDS011;32023;44.444;26.006;2023-06-22T07:19:13;5.60;;;4.43;;
46290;SDS011;32023;44.444;26.006;2023-06-22T07:21:48;8.23;;;4.45;;
46290;SDS011;32023;44.444;26.006;2023-06-22T07:24:14;9.32;;;5.53;;
46290;SDS011;32023;44.444;26.006;2023-06-22T07:26:41;7.38;;;5.18;;
46290;SDS011;32023;44.444;26.006;2023-06-22T07:29:10;5.80;;;4.72;;
46290;SDS011;32023;44.444;26.006;2023-06-22T07:31:37;5.80;;;4.43;;
46290;SDS011;32023;44.444;26.006;2023-06-22T07:34:05;9.35;;;5.03;;
46290;SDS011;32023;44.444;26.006;2023-06-22T07:36:34;8.50;;;5.25;;
46290;SDS011;32023;44.444;26.006;2023-06-22T07:39:01;10.77;;;4.32;;
46290;SDS011;32023;44.444;26.006;2023-06-22T07:41:30;7.70;;;4.43;;
46290;SDS011;32023;44.444;26.006;2023-06-22T07:44:01;5.43;;;4.93;;
46290;SDS011;32023;44.444;26.006;2023-06-22T07:46:28;9.52;;;4.95;;
46290;SDS011;32023;44.444;26.006;2023-06-22T07:48:57;5.88;;;4.60;;
46290;SDS011;32023;44.444;26.006;2023-06-22T07:51:24;8.52;;;4.60;;
46290;SDS011;32023;44.444;26.006;2023-06-22T07:53:51;6.75;;;4.55;;
46290;SDS011;32023;44.444;26.006;2023-06-22T07:56:17;8.05;;;5.10;;
46290;SDS011;32023;44.444;26.006;2023-06-22T07:58:47;13.20;;;5.65;;
46290;SDS011;32023;44.444;26.006;2023-06-22T08:01:15;6.22;;;5.10;;
46290;SDS011;32023;44.444;26.006;2023-06-22T08:03:51;7.22;;;4.68;;
46290;SDS011;32023;44.444;26.006;2023-06-22T08:06:20;8.43;;;5.13;;
46290;SDS011;32023;44.444;26.006;2023-06-22T08:08:47;12.80;;;5.95;;
46290;SDS011;32023;44.444;26.006;2023-06-22T08:11:17;10.30;;;5.32;;
46290;SDS011;32023;44.444;26.006;2023-06-22T08:13:44;5.63;;;4.97;;
46290;SDS011;32023;44.444;26.006;2023-06-22T08:16:11;7.88;;;5.82;;
46290;SDS011;32023;44.444;26.006;2023-06-22T08:18:37;12.15;;;5.97;;
46290;SDS011;32023;44.444;26.006;2023-06-22T08:21:06;7.65;;;4.85;;
46290;SDS011;32023;44.444;26.006;2023-06-22T08:23:35;13.23;;;6.10;;
46290;SDS011;32023;44.444;26.006;2023-06-22T08:26:01;8.90;;;5.32;;
46290;SDS011;32023;44.444;26.006;2023-06-22T08:28:30;9.98;;;5.65;;
46290;SDS011;32023;44.444;26.006;2023-06-22T08:30:56;8.82;;;5.50;;
46290;SDS011;32023;44.444;26.006;2023-06-22T08:33:28;8.95;;;4.93;;
46290;SDS011;32023;44.444;26.006;2023-06-22T08:35:58;7.22;;;4.47;;
46290;SDS011;32023;44.444;26.006;2023-06-22T08:38:38;5.90;;;4.78;;
46290;SDS011;32023;44.444;26.006;2023-06-22T08:41:04;8.35;;;5.20;;
46290;SDS011;32023;44.444;26.006;2023-06-22T08:43:31;10.27;;;5.10;;
46290;SDS011;32023;44.444;26.006;2023-06-22T08:48:45;15.27;;;6.30;;
46290;SDS011;32023;44.444;26.006;2023-06-22T08:51:12;14.93;;;4.70;;
46290;SDS011;32023;44.444;26.006;2023-06-22T08:53:48;5.25;;;4.38;;
46290;SDS011;32023;44.444;26.006;2023-06-22T08:56:55;7.07;;;4.45;;
46290;SDS011;32023;44.444;26.006;2023-06-22T08:59:33;9.80;;;4.15;;
46290;SDS011;32023;44.444;26.006;2023-06-22T09:02:02;6.40;;;4.22;;
46290;SDS011;32023;44.444;26.006;2023-06-22T09:04:28;6.38;;;4.18;;
46290;SDS011;32023;44.444;26.006;2023-06-22T09:06:59;4.50;;;3.75;;
46290;SDS011;32023;44.444;26.006;2023-06-22T09:09:26;8.05;;;4.70;;
46290;SDS011;32023;44.444;26.006;2023-06-22T09:11:53;6.72;;;4.45;;
46290;SDS011;32023;44.444;26.006;2023-06-22T09:14:19;5.72;;;4.60;;
46290;SDS011;32023;44.444;26.006;2023-06-22T09:16:46;5.78;;;4.00;;
46290;SDS011;32023;44.444;26.006;2023-06-22T09:19:15;4.97;;;4.57;;
46290;SDS011;32023;44.444;26.006;2023-06-22T09:21:44;4.78;;;4.30;;
46290;SDS011;32023;44.444;26.006;2023-06-22T09:24:17;5.38;;;4.28;;
46290;SDS011;32023;44.444;26.006;2023-06-22T09:26:46;7.32;;;5.35;;
46290;SDS011;32023;44.444;26.006;2023-06-22T09:32:15;5.93;;;4.78;;
46290;SDS011;32023;44.444;26.006;2023-06-22T09:34:57;6.20;;;4.68;;
46290;SDS011;32023;44.444;26.006;2023-06-22T09:43:14;8.57;;;4.57;;
46290;SDS011;32023;44.444;26.006;2023-06-22T09:45:55;8.27;;;4.97;;
46290;SDS011;32023;44.444;26.006;2023-06-22T09:48:27;7.75;;;4.20;;
46290;SDS011;32023;44.444;26.006;2023-06-22T09:51:06;8.55;;;4.90;;
46290;SDS011;32023;44.444;26.006;2023-06-22T09:53:35;5.40;;;4.43;;
46290;SDS011;32023;44.444;26.006;2023-06-22T09:56:07;5.82;;;4.80;;
46290;SDS011;32023;44.444;26.006;2023-06-22T09:58:53;11.45;;;5.35;;
46290;SDS011;32023;44.444;26.006;2023-06-22T10:01:46;10.25;;;5.20;;
46290;SDS011;32023;44.444;26.006;2023-06-22T10:04:15;7.07;;;4.13;;
46290;SDS011;32023;44.444;26.006;2023-06-22T10:11:59;5.90;;;4.50;;
46290;SDS011;32023;44.444;26.006;2023-06-22T10:14:34;7.00;;;4.20;;
46290;SDS011;32023;44.444;26.006;2023-06-22T10:17:23;7.75;;;4.40;;
46290;SDS011;32023;44.444;26.006;2023-06-22T10:19:50;7.65;;;5.13;;
46290;SDS011;32023;44.444;26.006;2023-06-22T10:22:16;7.82;;;4.55;;
46290;SDS011;32023;44.444;26.006;2023-06-22T10:24:56;5.07;;;4.20;;
46290;SDS011;32023;44.444;26.006;2023-06-22T10:27:22;8.50;;;4.80;;
46290;SDS011;32023;44.444;26.006;2023-06-22T10:29:49;4.68;;;4.28;;
46290;SDS011;32023;44.444;26.006;2023-06-22T10:32:15;6.43;;;4.22;;
46290;SDS011;32023;44.444;26.006;2023-06-22T10:34:44;6.50;;;3.65;;
46290;SDS011;32023;44.444;26.006;2023-06-22T10:37:10;4.80;;;3.95;;
46290;SDS011;32023;44.444;26.006;2023-06-22T10:39:36;8.55;;;4.40;;
46290;SDS011;32023;44.444;26.006;2023-06-22T10:42:07;7.18;;;4.03;;
46290;SDS011;32023;44.444;26.006;2023-06-22T10:44:33;11.32;;;4.28;;
46290;SDS011;32023;44.444;26.006;2023-06-22T10:47:00;5.22;;;4.03;;
46290;SDS011;32023;44.444;26.006;2023-06-22T10:49:26;5.20;;;3.72;;
46290;SDS011;32023;44.444;26.006;2023-06-22T10:51:52;5.28;;;3.63;;
46290;SDS011;32023;44.444;26.006;2023-06-22T10:54:19;3.80;;;3.50;;
46290;SDS011;32023;44.444;26.006;2023-06-22T10:56:48;13.43;;;3.85;;
46290;SDS011;32023;44.444;26.006;2023-06-22T10:59:18;6.90;;;3.75;;
46290;SDS011;32023;44.444;26.006;2023-06-22T11:01:48;6.07;;;3.97;;
46290;SDS011;32023;44.444;26.006;2023-06-22T11:04:25;7.93;;;4.20;;
46290;SDS011;32023;44.444;26.006;2023-06-22T11:07:00;8.63;;;4.05;;
46290;SDS011;32023;44.444;26.006;2023-06-22T11:09:29;6.18;;;4.22;;
46290;SDS011;32023;44.444;26.006;2023-06-22T11:11:56;6.97;;;4.00;;
46290;SDS011;32023;44.444;26.006;2023-06-22T11:14:24;8.38;;;4.05;;
46290;SDS011;32023;44.444;26.006;2023-06-22T11:16:50;10.70;;;4.35;;
46290;SDS011;32023;44.444;26.006;2023-06-22T11:19:20;8.20;;;4.07;;
46290;SDS011;32023;44.444;26.006;2023-06-22T11:21:53;9.80;;;4.50;;
46290;SDS011;32023;44.444;26.006;2023-06-22T11:24:28;9.52;;;4.15;;
46290;SDS011;32023;44.444;26.006;2023-06-22T11:29:35;8.95;;;4.82;;
46290;SDS011;32023;44.444;26.006;2023-06-22T11:32:05;10.07;;;4.80;;
46290;SDS011;32023;44.444;26.006;2023-06-22T11:34:35;4.85;;;4.35;;
46290;SDS011;32023;44.444;26.006;2023-06-22T11:37:04;7.10;;;4.53;;
46290;SDS011;32023;44.444;26.006;2023-06-22T11:39:31;6.57;;;4.57;;
46290;SDS011;32023;44.444;26.006;2023-06-22T11:42:21;10.70;;;4.80;;
46290;SDS011;32023;44.444;26.006;2023-06-22T11:48:02;8.98;;;4.88;;
46290;SDS011;32023;44.444;26.006;2023-06-22T11:50:36;10.02;;;5.18;;
46290;SDS011;32023;44.444;26.006;2023-06-22T11:53:09;7.50;;;5.18;;
46290;SDS011;32023;44.444;26.006;2023-06-22T11:55:47;7.55;;;5.70;;
46290;SDS011;32023;44.444;26.006;2023-06-22T11:58:14;7.32;;;5.32;;
46290;SDS011;32023;44.444;26.006;2023-06-22T12:00:52;8.68;;;4.93;;
46290;SDS011;32023;44.444;26.006;2023-06-22T12:03:42;7.50;;;4.80;;
46290;SDS011;32023;44.444;26.006;2023-06-22T12:06:09;7.38;;;4.93;;
46290;SDS011;32023;44.444;26.006;2023-06-22T12:08:41;9.13;;;5.00;;
46290;SDS011;32023;44.444;26.006;2023-06-22T12:11:13;7.75;;;5.30;;
46290;SDS011;32023;44.444;26.006;2023-06-22T12:13:44;6.97;;;5.00;;
46290;SDS011;32023;44.444;26.006;2023-06-22T12:16:13;7.10;;;5.63;;
46290;SDS011;32023;44.444;26.006;2023-06-22T12:18:40;10.15;;;5.63;;
46290;SDS011;32023;44.444;26.006;2023-06-22T12:21:06;8.82;;;6.10;;
46290;SDS011;32023;44.444;26.006;2023-06-22T12:23:33;11.55;;;5.68;;
46290;SDS011;32023;44.444;26.006;2023-06-22T12:26:02;8.13;;;5.53;;
46290;SDS011;32023;44.444;26.006;2023-06-22T12:28:40;8.45;;;5.05;;
46290;SDS011;32023;44.444;26.006;2023-06-22T12:31:12;12.30;;;6.00;;
46290;SDS011;32023;44.444;26.006;2023-06-22T12:33:51;10.10;;;5.30;;
46290;SDS011;32023;44.444;26.006;2023-06-22T12:36:17;15.35;;;5.25;;
46290;SDS011;32023;44.444;26.006;2023-06-22T12:41:22;11.10;;;5.43;;
46290;SDS011;32023;44.444;26.006;2023-06-22T12:44:00;7.10;;;4.80;;
46290;SDS011;32023;44.444;26.006;2023-06-22T12:46:27;6.30;;;5.13;;
46290;SDS011;32023;44.444;26.006;2023-06-22T12:49:06;6.68;;;5.10;;
46290;SDS011;32023;44.444;26.006;2023-06-22T12:51:32;6.80;;;4.80;;
46290;SDS011;32023;44.444;26.006;2023-06-22T12:56:47;13.10;;;4.95;;
46290;SDS011;32023;44.444;26.006;2023-06-22T12:59:28;10.27;;;4.97;;
46290;SDS011;32023;44.444;26.006;2023-06-22T13:01:55;14.65;;;5.22;;
46290;SDS011;32023;44.444;26.006;2023-06-22T13:04:32;7.13;;;4.88;;
46290;SDS011;32023;44.444;26.006;2023-06-22T13:07:03;6.47;;;5.00;;
46290;SDS011;32023;44.444;26.006;2023-06-22T13:09:42;7.13;;;4.45;;
46290;SDS011;32023;44.444;26.006;2023-06-22T13:12:17;6.80;;;4.78;;
46290;SDS011;32023;44.444;26.006;2023-06-22T13:18:10;8.82;;;4.95;;
46290;SDS011;32023;44.444;26.006;2023-06-22T13:21:16;12.48;;;5.32;;
46290;SDS011;32023;44.444;26.006;2023-06-22T13:26:46;7.15;;;4.90;;
46290;SDS011;32023;44.444;26.006;2023-06-22T13:29:12;8.27;;;5.70;;
46290;SDS011;32023;44.444;26.006;2023-06-22T13:31:44;7.60;;;4.63;;
46290;SDS011;32023;44.444;26.006;2023-06-22T13:34:14;5.22;;;4.60;;
46290;SDS011;32023;44.444;26.006;2023-06-22T13:36:42;9.43;;;4.95;;
46290;SDS011;32023;44.444;26.006;2023-06-22T13:39:11;11.90;;;5.45;;
46290;SDS011;32023;44.444;26.006;2023-06-22T13:41:44;8.55;;;5.28;;
46290;SDS011;32023;44.444;26.006;2023-06-22T13:44:11;10.95;;;5.28;;
46290;SDS011;32023;44.444;26.006;2023-06-22T13:46:41;5.28;;;4.78;;
46290;SDS011;32023;44.444;26.006;2023-06-22T13:49:07;7.70;;;4.60;;
46290;SDS011;32023;44.444;26.006;2023-06-22T13:51:35;5.80;;;5.10;;
46290;SDS011;32023;44.444;26.006;2023-06-22T13:54:06;12.15;;;5.18;;
46290;SDS011;32023;44.444;26.006;2023-06-22T13:56:32;7.10;;;5.25;;
46290;SDS011;32023;44.444;26.006;2023-06-22T13:58:59;11.88;;;4.85;;
46290;SDS011;32023;44.444;26.006;2023-06-22T14:01:26;6.05;;;4.90;;
46290;SDS011;32023;44.444;26.006;2023-06-22T14:03:52;7.95;;;5.13;;
46290;SDS011;32023;44.444;26.006;2023-06-22T14:06:19;5.93;;;5.38;;
46290;SDS011;32023;44.444;26.006;2023-06-22T14:08:48;8.73;;;5.45;;
46290;SDS011;32023;44.444;26.006;2023-06-22T14:11:17;10.93;;;5.78;;
46290;SDS011;32023;44.444;26.006;2023-06-22T14:13:46;9.45;;;5.03;;
46290;SDS011;32023;44.444;26.006;2023-06-22T14:16:13;6.50;;;5.60;;
46290;SDS011;32023;44.444;26.006;2023-06-22T14:18:39;9.38;;;5.80;;
46290;SDS011;32023;44.444;26.006;2023-06-22T14:21:12;6.53;;;5.15;;
46290;SDS011;32023;44.444;26.006;2023-06-22T14:23:43;6.95;;;4.80;;
46290;SDS011;32023;44.444;26.006;2023-06-22T14:26:32;6.85;;;5.00;;
46290;SDS011;32023;44.444;26.006;2023-06-22T14:29:02;5.80;;;5.15;;
46290;SDS011;32023;44.444;26.006;2023-06-22T14:31:36;9.55;;;5.45;;
46290;SDS011;32023;44.444;26.006;2023-06-22T14:34:03;10.13;;;5.70;;
46290;SDS011;32023;44.444;26.006;2023-06-22T14:36:34;12.27;;;5.53;;
46290;SDS011;32023;44.444;26.006;2023-06-22T14:39:02;12.70;;;5.90;;
46290;SDS011;32023;44.444;26.006;2023-06-22T14:41:30;9.93;;;4.68;;
46290;SDS011;32023;44.444;26.006;2023-06-22T14:43:59;14.57;;;5.53;;
46290;SDS011;32023;44.444;26.006;2023-06-22T14:46:26;7.88;;;5.50;;
46290;SDS011;32023;44.444;26.006;2023-06-22T14:48:53;8.55;;;5.40;;
46290;SDS011;32023;44.444;26.006;2023-06-22T14:51:23;15.32;;;5.75;;
46290;SDS011;32023;44.444;26.006;2023-06-22T14:53:51;9.38;;;5.50;;
46290;SDS011;32023;44.444;26.006;2023-06-22T14:56:18;10.98;;;5.82;;
46290;SDS011;32023;44.444;26.006;2023-06-22T14:58:47;9.40;;;5.38;;
46290;SDS011;32023;44.444;26.006;2023-06-22T15:01:14;11.82;;;5.60;;
46290;SDS011;32023;44.444;26.006;2023-06-22T15:03:45;11.63;;;5.00;;
46290;SDS011;32023;44.444;26.006;2023-06-22T15:06:12;12.90;;;6.18;;
46290;SDS011;32023;44.444;26.006;2023-06-22T15:08:38;11.55;;;5.38;;
46290;SDS011;32023;44.444;26.006;2023-06-22T15:11:08;7.82;;;5.65;;
46290;SDS011;32023;44.444;26.006;2023-06-22T15:13:38;7.68;;;5.88;;
46290;SDS011;32023;44.444;26.006;2023-06-22T15:16:05;8.27;;;5.70;;
46290;SDS011;32023;44.444;26.006;2023-06-22T15:18:32;7.40;;;5.38;;
46290;SDS011;32023;44.444;26.006;2023-06-22T15:21:00;9.48;;;5.10;;
46290;SDS011;32023;44.444;26.006;2023-06-22T15:23:27;8.40;;;5.32;;
46290;SDS011;32023;44.444;26.006;2023-06-22T15:25:55;14.32;;;5.72;;